Tye River, Virginia
Current Conditions -  °F | °C
As of 5:15 AM on Wednesday 26 Nov 2014 (Local Time) from KW13 Reporting Station
Overcast Overcast  
Wind Chill: 34°   Ceiling: 2200
Heat Index: 37°   Visibility: 3mi
Dew Point: 36°   Wind: 5mph
Humidity: 94%   Direction: 360°N
Pressure: 30.03"   Gusts: NA
Location:  37.6956°N, 78.9097°W
Report Text: KW13 261015Z AUTO 36004KT 3SM OVC022 03/02 A3003 RMK AO1 P0004 T00300021
Loading
Personal Weather Stations






























Interactive Weather Map New forecast layout! Learn more

10-Day Weather Forecast

Advertisements
Track Severe Weather on mobile